Chapman, Alabama
Current Conditions -  °F | °C
As of 10:56 AM on Friday 31 Oct 2014 (Local Time) from KPRN Reporting Station
Clear Clear  
Wind Chill: 67°   Ceiling: Unl
Heat Index: 67°   Visibility: 10mi
Dew Point: 41°   Wind: 5mph
Humidity: 39%   Direction: 60°ENE
Pressure: 29.98"   Gusts: NA
Location:  31.67°N, 86.71°W
Report Text: KPRN 311556Z AUTO 06004KT 10SM CLR 19/05 A2998 RMK AO2 SLP151 T01940050
Loading
Personal Weather Stations






























Interactive Weather Map
Tropical Storm Tracking
New forecast layout! Learn more

10-Day Weather Forecast

Advertisements
Track Severe Weather on mobile